Hlavní strana
METAR-TAF:

METAR-TAF

Letiště :

Tripolis, Libye

Mitiga International Airport

zeměpisná šířka: 32-54N, zeměpisná délka: 13-17E, výška: 11 m

Aktuální stav počasí

Zpráva byla vytvořena před 1 hodinou a 1 minutami, v 16:50 UTC
Východní vítr 11 kt
Teplota 21°C
Vlhkost vzduchu 53%
Tlak 1018 hPa
Viditelnost: 8000 m

METAR: HLLM 241650Z 10011KT 8000 NSC 21/11 Q1018

Čas: 19:51 (17:51 UTC)

Předpověď počasí

Zpráva byla vytvořena před 6 hodinami a 51 minutami, v 11:00 UTC
Předpověď platná od 24 v 12 UTC do 25 v 12 UTC
Východoseverovýchodní vítr 15 kt s nárazy do 25 kt
Viditelnost: 8000 m
Skoro jasno ve výšce 2500 ft
Dočasný
od 24 v 12 UTC do 24 v 18 UTC
Viditelnost: 5000 m
zvířený prach
Změna
od 24 v 20 UTC do 24 v 22 UTC
Východní vítr 12 kt
Změna
od 25 v 10 UTC do 25 v 12 UTC
Severoseverovýchodní vítr 12 kt

TAF: HLLM 241100Z 2412/2512 06015G25KT 8000 FEW025 TEMPO 2412/2418 5000 BLDU BECMG 2420/2422 09012KT BECMG 2510/2512 03012KT

Stav a předpovědi počasí z více než 4 000 letišť (zprávy METAR a TAF).

Červené a žluté tečky na mapě představují dostupné meteorologické stanice.

Když kurzor umístíte na tečku, zobrazí se název stanice.

Pak kliknutím zobrazíte stav a předpověď počasí.

Chcete-li změnit mapu, kliknutím na zelené tlačítko se znaménkem +mapu přiblížíte, kliknutím na zelené tlačítko se znaménkem – mapu oddálíte a kliknutím na zelené šipky přejdete na sousední mapy.


METAR-TAF: